Time;durP1;ratioP1;P1;durP2;ratioP2;P2;SDS_P1;SDS_P2;PMS_P1;PMS_P2;Temp;Humidity;BMP_temperature;BMP_pressure;BME280_temperature;BME280_humidity;BME280_pressure;Samples;Min_cycle;Max_cycle;Signal;HPM_P1;HPM_P2
2023/08/02 00:00:38;;;;;;;10.18;3.60;;;16.30;61.70;;;;;;5051827;28;20838;-71
2023/08/02 00:03:04;;;;;;;12.75;3.65;;;16.20;62.30;;;;;;5052940;28;20400;-73
2023/08/02 00:05:30;;;;;;;11.70;3.70;;;16.20;62.60;;;;;;5051341;28;20829;-72
2023/08/02 00:07:56;;;;;;;12.93;3.90;;;16.10;64.00;;;;;;5051031;28;20435;-72
2023/08/02 00:10:22;;;;;;;7.97;3.45;;;16.00;64.60;;;;;;5051379;28;20405;-72
2023/08/02 00:12:51;;;;;;;9.17;3.40;;;16.00;65.50;;;;;;5050705;28;20433;-71
2023/08/02 00:15:21;;;;;;;9.45;3.60;;;16.00;65.30;;;;;;5051448;28;20789;-72
2023/08/02 00:17:46;;;;;;;9.75;3.70;;;16.00;65.50;;;;;;5055141;28;20483;-72
2023/08/02 00:20:12;;;;;;;10.38;3.13;;;16.00;65.20;;;;;;5057767;28;20758;-72
2023/08/02 00:22:38;;;;;;;12.95;3.70;;;16.00;64.90;;;;;;5039492;28;20694;-72
2023/08/02 00:25:04;;;;;;;9.20;3.40;;;15.90;66.10;;;;;;5057842;28;20385;-71
2023/08/02 00:27:31;;;;;;;8.27;3.10;;;15.90;67.50;;;;;;5058334;28;20832;-72
2023/08/02 00:29:57;;;;;;;12.20;3.17;;;15.70;68.30;;;;;;5058639;28;20388;-73
2023/08/02 00:32:22;;;;;;;12.30;3.80;;;15.70;70.00;;;;;;5058410;28;20405;-71
2023/08/02 00:34:54;;;;;;;10.50;3.40;;;15.70;69.70;;;;;;5058918;28;20381;-71
2023/08/02 00:37:23;;;;;;;12.67;3.80;;;15.70;70.00;;;;;;5058625;28;20500;-73
2023/08/02 00:39:54;;;;;;;6.88;3.15;;;15.60;71.10;;;;;;5058559;28;20488;-70
2023/08/02 00:42:20;;;;;;;7.38;2.85;;;15.50;72.20;;;;;;5058766;28;20401;-72
2023/08/02 00:44:46;;;;;;;11.80;3.53;;;15.50;73.20;;;;;;5059059;28;20411;-71
2023/08/02 00:47:11;;;;;;;8.50;3.78;;;15.50;73.50;;;;;;5059234;28;20385;-71
2023/08/02 00:49:37;;;;;;;7.90;3.35;;;15.40;74.70;;;;;;5059178;28;20397;-72
2023/08/02 00:52:04;;;;;;;11.85;3.92;;;15.40;75.60;;;;;;5040872;28;20401;-72
2023/08/02 00:54:30;;;;;;;12.98;3.80;;;15.40;77.40;;;;;;5060759;28;20383;-72
2023/08/02 00:56:56;;;;;;;8.80;3.70;;;15.30;77.90;;;;;;5042625;28;20389;-71
2023/08/02 00:59:21;;;;;;;10.15;3.67;;;15.20;78.80;;;;;;5060161;28;20963;-71
2023/08/02 01:01:47;;;;;;;6.00;3.20;;;15.20;79.50;;;;;;5060512;28;20381;-71
2023/08/02 01:04:14;;;;;;;9.05;3.60;;;15.10;81.90;;;;;;5060054;28;20423;-72
2023/08/02 01:06:50;;;;;;;7.47;3.30;;;15.20;81.90;;;;;;5060047;28;20443;-74
2023/08/02 01:09:29;;;;;;;7.45;3.50;;;15.20;82.20;;;;;;5059837;28;20484;-72
2023/08/02 01:12:03;;;;;;;7.18;3.50;;;15.20;81.70;;;;;;5042362;28;20409;-71
2023/08/02 01:14:31;;;;;;;9.63;3.30;;;15.10;83.70;;;;;;5060921;28;20408;-74
2023/08/02 01:16:58;;;;;;;9.35;3.60;;;15.10;84.80;;;;;;5060341;28;20376;-74
2023/08/02 01:19:24;;;;;;;7.35;3.63;;;15.10;86.60;;;;;;5060590;28;20407;-72
2023/08/02 01:21:50;;;;;;;12.75;3.90;;;15.10;85.50;;;;;;5060593;28;20386;-72
2023/08/02 01:24:16;;;;;;;6.95;3.42;;;15.10;86.20;;;;;;5060221;28;20438;-71
2023/08/02 01:26:46;;;;;;;6.88;3.55;;;15.10;87.40;;;;;;5061303;28;20454;-71
2023/08/02 01:29:15;;;;;;;7.37;3.33;;;15.10;89.00;;;;;;5055670;28;20392;-72
2023/08/02 01:31:42;;;;;;;8.70;3.60;;;15.20;88.10;;;;;;5060782;28;20405;-73
2023/08/02 01:34:08;;;;;;;11.18;3.20;;;15.30;87.50;;;;;;5061716;28;20408;-71
2023/08/02 01:36:34;;;;;;;10.13;3.40;;;15.30;87.00;;;;;;5060113;28;20449;-71
2023/08/02 01:39:00;;;;;;;6.93;3.13;;;15.40;84.80;;;;;;5056064;28;20417;-73
2023/08/02 01:41:25;;;;;;;7.00;3.55;;;15.50;84.10;;;;;;5055886;28;20826;-71
2023/08/02 01:43:51;;;;;;;7.10;3.28;;;15.60;84.10;;;;;;5056528;28;20750;-71
2023/08/02 01:46:16;;;;;;;5.90;3.00;;;15.70;80.30;;;;;;5038103;28;20774;-72
2023/08/02 01:48:42;;;;;;;8.37;3.20;;;15.80;79.00;;;;;;5055367;28;20385;-72
2023/08/02 01:51:09;;;;;;;9.43;3.90;;;15.80;78.90;;;;;;5054765;28;20412;-71
2023/08/02 01:53:34;;;;;;;10.10;3.53;;;15.90;77.60;;;;;;5055417;28;20382;-72
2023/08/02 01:56:00;;;;;;;8.20;3.50;;;15.90;78.50;;;;;;5054882;28;20391;-71
2023/08/02 01:58:25;;;;;;;9.80;3.20;;;15.90;77.30;;;;;;5054526;28;20846;-74
2023/08/02 02:00:51;;;;;;;8.75;3.42;;;16.10;74.90;;;;;;5054109;28;20385;-71
2023/08/02 02:03:16;;;;;;;8.17;3.37;;;16.10;73.60;;;;;;5054442;28;20388;-71
2023/08/02 02:05:51;;;;;;;8.17;3.20;;;16.20;71.70;;;;;;5055177;28;20386;-72
2023/08/02 02:08:17;;;;;;;9.00;3.90;;;16.20;71.80;;;;;;5054853;28;20399;-71
2023/08/02 02:10:53;;;;;;;7.97;3.63;;;16.20;71.70;;;;;;5054063;28;20811;-71
2023/08/02 02:13:21;;;;;;;11.40;4.10;;;16.30;70.90;;;;;;5054729;28;20421;-71
2023/08/02 02:15:46;;;;;;;10.33;4.00;;;16.30;70.10;;;;;;5055150;28;20882;-71
2023/08/02 02:18:12;;;;;;;9.23;3.80;;;16.30;70.10;;;;;;5054821;28;20499;-71
2023/08/02 02:20:38;;;;;;;8.80;3.80;;;16.40;68.80;;;;;;5053484;28;21006;-73
2023/08/02 02:23:03;;;;;;;8.43;3.35;;;16.40;68.60;;;;;;5035871;28;20874;-71
2023/08/02 02:25:29;;;;;;;8.17;3.33;;;16.40;68.70;;;;;;5053606;28;20385;-71
2023/08/02 02:27:54;;;;;;;10.47;3.83;;;16.40;69.20;;;;;;5053483;28;20420;-73
2023/08/02 02:30:20;;;;;;;9.00;3.80;;;16.40;68.00;;;;;;5053907;28;20393;-73
2023/08/02 02:32:46;;;;;;;10.37;3.87;;;16.50;66.70;;;;;;5053456;28;20398;-71
2023/08/02 02:35:15;;;;;;;7.53;3.30;;;16.50;66.60;;;;;;5053191;28;20393;-71
2023/08/02 02:37:41;;;;;;;7.20;3.60;;;16.50;66.30;;;;;;5053821;28;20447;-72
2023/08/02 02:40:08;;;;;;;7.22;3.50;;;16.60;64.60;;;;;;5054096;28;21057;-72
2023/08/02 02:42:34;;;;;;;11.07;3.60;;;16.60;64.60;;;;;;5054976;28;20777;-72
2023/08/02 02:44:59;;;;;;;7.25;3.30;;;16.60;65.40;;;;;;5054349;28;20568;-71
2023/08/02 02:47:25;;;;;;;12.43;3.80;;;16.60;65.80;;;;;;5054629;28;20389;-72
2023/08/02 02:49:51;;;;;;;8.75;3.42;;;16.50;66.10;;;;;;5053475;28;20719;-73
2023/08/02 02:52:16;;;;;;;8.67;3.40;;;16.50;67.10;;;;;;5035337;28;20404;-72
2023/08/02 02:54:42;;;;;;;9.10;3.20;;;16.50;67.30;;;;;;5053053;28;20461;-71
2023/08/02 02:57:07;;;;;;;9.45;3.40;;;16.40;67.40;;;;;;5053263;28;20444;-70
2023/08/02 02:59:33;;;;;;;8.30;3.60;;;16.50;66.60;;;;;;5053474;28;20378;-72
2023/08/02 03:01:59;;;;;;;12.07;3.40;;;16.40;67.30;;;;;;5057179;28;20405;-71
2023/08/02 03:04:25;;;;;;;6.37;3.27;;;16.40;67.60;;;;;;5064615;28;20465;-72
2023/08/02 03:06:51;;;;;;;8.32;3.45;;;16.40;67.70;;;;;;5072783;28;20457;-72
2023/08/02 03:09:17;;;;;;;8.07;3.85;;;16.40;67.70;;;;;;5070202;28;20399;-72
2023/08/02 03:11:43;;;;;;;11.32;3.63;;;16.50;66.20;;;;;;5052032;28;20435;-72
2023/08/02 03:14:09;;;;;;;6.95;3.42;;;16.50;66.50;;;;;;5053025;28;21085;-71
2023/08/02 03:16:35;;;;;;;8.32;3.60;;;16.50;66.60;;;;;;5053806;28;20435;-72
2023/08/02 03:19:00;;;;;;;5.97;3.47;;;16.50;65.80;;;;;;5035459;28;20439;-74
2023/08/02 03:21:26;;;;;;;7.40;3.20;;;16.50;65.50;;;;;;5065284;28;20415;-74
2023/08/02 03:23:51;;;;;;;5.40;3.40;;;16.60;65.20;;;;;;5073750;28;20406;-72
2023/08/02 03:26:17;;;;;;;6.33;3.13;;;16.60;64.10;;;;;;5070415;28;20493;-72
2023/08/02 03:28:42;;;;;;;8.40;3.15;;;16.70;63.50;;;;;;5066246;28;20401;-74
2023/08/02 03:31:08;;;;;;;11.80;3.80;;;16.60;63.00;;;;;;5054237;28;20399;-74
2023/08/02 03:33:34;;;;;;;8.50;3.10;;;16.70;62.50;;;;;;5073023;28;20872;-73
2023/08/02 03:36:00;;;;;;;6.03;3.00;;;16.70;62.20;;;;;;5054974;28;20469;-73
2023/08/02 03:38:25;;;;;;;9.95;3.40;;;16.70;62.40;;;;;;5072731;28;20437;-73
2023/08/02 03:40:52;;;;;;;5.50;2.90;;;16.80;61.30;;;;;;5073541;28;20779;-72
2023/08/02 03:43:17;;;;;;;5.97;3.35;;;16.80;61.80;;;;;;5073706;28;20387;-73
2023/08/02 03:45:43;;;;;;;8.07;3.10;;;16.80;61.70;;;;;;5073027;28;20398;-72
2023/08/02 03:48:09;;;;;;;11.27;3.45;;;16.80;61.30;;;;;;5073386;28;20726;-70
2023/08/02 03:50:34;;;;;;;7.80;2.97;;;16.90;60.80;;;;;;5073592;28;20745;-72
2023/08/02 03:53:00;;;;;;;6.07;3.00;;;16.90;60.40;;;;;;5073111;28;20388;-71
2023/08/02 03:55:26;;;;;;;6.95;3.10;;;16.90;60.40;;;;;;5073207;28;20509;-72
2023/08/02 03:57:51;;;;;;;9.37;3.53;;;16.80;61.00;;;;;;5057390;28;20387;-73
2023/08/02 04:00:17;;;;;;;10.73;3.50;;;16.90;60.30;;;;;;5074379;28;20376;-73
2023/08/02 04:02:43;;;;;;;7.38;3.30;;;16.80;60.60;;;;;;5073883;28;20376;-73
2023/08/02 04:05:09;;;;;;;8.48;3.10;;;16.90;60.30;;;;;;5058519;28;20613;-73
2023/08/02 04:07:35;;;;;;;8.23;3.15;;;16.90;60.00;;;;;;5073704;28;20379;-73
2023/08/02 04:10:00;;;;;;;7.00;3.53;;;16.90;60.40;;;;;;5072719;28;20394;-72
2023/08/02 04:12:26;;;;;;;5.10;2.75;;;16.90;60.50;;;;;;5054376;28;20434;-72
2023/08/02 04:14:51;;;;;;;6.93;2.87;;;16.80;60.70;;;;;;5073788;28;20419;-72
2023/08/02 04:17:17;;;;;;;6.90;2.95;;;16.90;59.90;;;;;;5073984;28;20384;-75
2023/08/02 04:19:43;;;;;;;7.90;3.33;;;17.00;59.80;;;;;;5057449;28;20687;-74
2023/08/02 04:22:08;;;;;;;6.00;2.50;;;17.00;59.80;;;;;;5071939;28;20383;-73
2023/08/02 04:24:34;;;;;;;7.13;2.60;;;17.00;59.60;;;;;;5072336;28;20465;-73
2023/08/02 04:26:59;;;;;;;9.57;2.90;;;17.00;59.50;;;;;;5072217;28;20395;-72
2023/08/02 04:29:25;;;;;;;4.90;2.60;;;17.10;59.40;;;;;;5072058;28;20429;-73
2023/08/02 04:31:51;;;;;;;7.10;2.40;;;17.20;58.80;;;;;;5072082;28;20756;-73
2023/08/02 04:34:16;;;;;;;7.43;2.60;;;17.20;59.30;;;;;;5072637;28;20449;-73
2023/08/02 04:36:42;;;;;;;5.78;2.53;;;17.10;59.80;;;;;;5072490;28;20371;-73
2023/08/02 04:39:07;;;;;;;5.55;2.70;;;17.20;60.40;;;;;;5054792;28;20439;-73
2023/08/02 04:41:34;;;;;;;5.77;2.80;;;17.20;60.80;;;;;;5072128;28;20382;-74
2023/08/02 04:44:00;;;;;;;5.15;2.63;;;17.20;61.40;;;;;;5053685;28;20450;-73
2023/08/02 04:46:29;;;;;;;7.03;2.72;;;17.10;62.70;;;;;;5072106;28;20384;-72
2023/08/02 04:48:55;;;;;;;15.73;3.70;;;17.10;62.80;;;;;;5071987;28;20419;-73
2023/08/02 04:51:21;;;;;;;6.55;2.75;;;17.10;63.40;;;;;;5071626;28;20399;-72
2023/08/02 04:53:49;;;;;;;7.28;3.00;;;17.10;64.90;;;;;;5071715;28;20437;-74
2023/08/02 04:56:16;;;;;;;5.65;2.55;;;17.10;65.20;;;;;;5072568;28;20397;-74
2023/08/02 04:58:42;;;;;;;6.05;2.88;;;17.10;65.20;;;;;;5071864;28;20808;-74
2023/08/02 05:01:08;;;;;;;7.18;3.00;;;17.10;65.80;;;;;;5053853;28;20436;-72
2023/08/02 05:03:35;;;;;;;5.63;3.15;;;17.10;66.90;;;;;;5073226;28;20755;-73
2023/08/02 05:06:02;;;;;;;6.43;3.20;;;17.20;66.00;;;;;;5075860;28;20386;-73
2023/08/02 05:08:31;;;;;;;8.73;3.20;;;17.20;66.50;;;;;;5076729;28;20395;-72
2023/08/02 05:10:57;;;;;;;8.33;3.17;;;17.10;66.20;;;;;;5058316;28;21010;-72
2023/08/02 05:13:24;;;;;;;7.00;3.20;;;17.20;66.00;;;;;;5077530;28;20396;-72
2023/08/02 05:15:50;;;;;;;7.17;3.30;;;17.20;66.20;;;;;;5077387;28;20395;-73
2023/08/02 05:18:16;;;;;;;5.85;3.35;;;17.10;66.40;;;;;;5079134;28;20380;-72
2023/08/02 05:20:41;;;;;;;10.07;3.58;;;17.20;67.30;;;;;;5079132;28;20387;-72
2023/08/02 05:23:07;;;;;;;8.30;3.73;;;17.20;66.20;;;;;;5080373;28;20391;-73
2023/08/02 05:25:34;;;;;;;7.90;3.30;;;17.20;64.90;;;;;;5080796;28;20456;-73
2023/08/02 05:28:00;;;;;;;9.87;3.70;;;17.40;64.90;;;;;;5081035;28;20412;-73
2023/08/02 05:30:27;;;;;;;8.48;3.90;;;17.40;64.40;;;;;;5084770;28;20384;-72
2023/08/02 05:32:54;;;;;;;6.40;3.92;;;17.40;63.00;;;;;;5084448;28;20411;-73
2023/08/02 05:35:20;;;;;;;7.28;3.70;;;17.50;63.80;;;;;;5084289;28;20406;-73
2023/08/02 05:37:45;;;;;;;5.67;3.90;;;17.50;63.40;;;;;;5086777;28;20394;-72
2023/08/02 05:40:11;;;;;;;11.33;4.30;;;17.50;62.30;;;;;;5087596;28;20395;-73
2023/08/02 05:42:37;;;;;;;6.37;4.00;;;17.50;63.50;;;;;;5085757;28;20388;-74
2023/08/02 05:45:03;;;;;;;8.57;3.67;;;17.50;65.00;;;;;;5077128;28;20841;-72
2023/08/02 05:47:29;;;;;;;10.38;4.20;;;17.40;66.70;;;;;;5059002;28;20387;-73
2023/08/02 05:49:55;;;;;;;10.63;4.30;;;17.40;67.90;;;;;;5059641;28;20394;-72
2023/08/02 05:52:20;;;;;;;7.80;4.07;;;17.50;67.80;;;;;;5077851;28;20958;-74
2023/08/02 05:54:46;;;;;;;10.00;4.70;;;17.40;69.20;;;;;;5079722;28;20457;-72
2023/08/02 05:57:11;;;;;;;6.20;4.10;;;17.50;68.70;;;;;;5082914;28;20391;-74
2023/08/02 05:59:38;;;;;;;7.00;4.43;;;17.40;69.60;;;;;;5084540;28;20461;-75
2023/08/02 06:02:04;;;;;;;8.30;4.13;;;17.50;68.90;;;;;;5066081;28;20422;-73
2023/08/02 06:04:32;;;;;;;7.32;4.28;;;17.50;69.90;;;;;;5086807;28;20388;-72
2023/08/02 06:06:58;;;;;;;8.13;4.30;;;17.50;69.00;;;;;;5068113;28;20811;-73
2023/08/02 06:09:23;;;;;;;11.07;4.20;;;17.50;69.60;;;;;;5066424;28;20434;-72
2023/08/02 06:11:49;;;;;;;10.07;4.60;;;17.60;69.60;;;;;;5074804;28;20407;-72
2023/08/02 06:14:14;;;;;;;8.47;4.83;;;17.60;70.00;;;;;;5074419;28;20379;-72
2023/08/02 06:16:40;;;;;;;7.37;4.63;;;17.60;70.00;;;;;;5055393;28;20429;-73
2023/08/02 06:19:05;;;;;;;11.80;4.88;;;17.70;67.80;;;;;;5075008;28;20808;-73
2023/08/02 06:21:31;;;;;;;9.20;4.53;;;17.70;68.50;;;;;;5073629;28;20387;-74
2023/08/02 06:23:56;;;;;;;10.33;4.90;;;17.70;69.30;;;;;;5074280;28;20494;-72
2023/08/02 06:26:22;;;;;;;11.90;4.97;;;17.70;70.30;;;;;;5074130;28;20387;-73
2023/08/02 06:28:48;;;;;;;9.88;4.68;;;17.80;68.20;;;;;;5056070;28;20384;-72
2023/08/02 06:31:13;;;;;;;9.97;5.77;;;17.80;69.80;;;;;;5073747;28;20472;-75
2023/08/02 06:33:39;;;;;;;8.80;5.00;;;17.80;71.40;;;;;;5074257;28;20417;-73
2023/08/02 06:36:05;;;;;;;10.40;5.38;;;17.70;72.70;;;;;;5073652;28;20376;-73
2023/08/02 06:38:32;;;;;;;10.00;5.50;;;17.70;73.50;;;;;;5073542;28;20380;-73
2023/08/02 06:40:58;;;;;;;13.25;6.15;;;17.70;76.60;;;;;;5074322;28;20860;-73
2023/08/02 06:43:23;;;;;;;9.93;4.93;;;17.60;79.10;;;;;;5058645;28;20391;-73
2023/08/02 06:45:49;;;;;;;10.68;5.80;;;17.60;78.40;;;;;;5058556;28;20438;-72
2023/08/02 06:48:19;;;;;;;12.73;7.27;;;17.60;77.70;;;;;;5079353;28;20509;-74
2023/08/02 06:50:45;;;;;;;10.45;5.95;;;17.70;78.70;;;;;;5077702;28;20379;-73
2023/08/02 06:53:11;;;;;;;11.27;5.40;;;17.70;80.80;;;;;;5066906;28;20391;-74
2023/08/02 06:55:36;;;;;;;6.93;5.07;;;17.70;80.00;;;;;;5082948;28;20391;-73
2023/08/02 06:58:02;;;;;;;10.60;5.10;;;17.70;80.50;;;;;;5079200;28;20388;-73
2023/08/02 07:00:32;;;;;;;7.85;5.28;;;17.70;81.90;;;;;;5075969;28;20494;-73
2023/08/02 07:02:59;;;;;;;9.33;5.23;;;17.70;81.90;;;;;;5076122;28;20415;-73
2023/08/02 07:05:28;;;;;;;9.23;5.00;;;17.70;82.30;;;;;;5075587;28;20387;-75
2023/08/02 07:07:55;;;;;;;9.03;5.00;;;17.70;82.00;;;;;;5075589;28;20379;-73
2023/08/02 07:10:20;;;;;;;9.65;5.22;;;17.60;82.90;;;;;;5073237;28;20890;-73
2023/08/02 07:12:48;;;;;;;7.72;4.60;;;17.50;86.00;;;;;;5072620;28;20407;-73
2023/08/02 07:15:14;;;;;;;8.30;5.00;;;17.60;86.60;;;;;;5072990;28;20536;-72
2023/08/02 07:17:39;;;;;;;5.40;4.45;;;17.60;87.90;;;;;;5054534;28;20884;-73
2023/08/02 07:20:08;;;;;;;8.00;4.27;;;17.60;87.90;;;;;;5056367;28;20394;-73
2023/08/02 07:22:33;;;;;;;5.00;4.40;;;17.70;86.60;;;;;;5073486;28;20903;-73
2023/08/02 07:24:59;;;;;;;6.87;3.90;;;17.80;85.70;;;;;;5071869;28;20388;-73
2023/08/02 07:27:25;;;;;;;8.63;4.00;;;17.90;81.90;;;;;;5071161;28;20388;-73
2023/08/02 07:29:52;;;;;;;5.50;3.50;;;17.90;79.50;;;;;;5071686;28;20420;-72
2023/08/02 07:32:18;;;;;;;4.65;3.78;;;18.10;78.00;;;;;;5072096;28;20400;-72
2023/08/02 07:34:43;;;;;;;6.37;4.10;;;18.30;74.40;;;;;;5072517;28;20434;-72
2023/08/02 07:37:09;;;;;;;6.00;3.80;;;18.40;71.80;;;;;;5071541;28;20380;-72
2023/08/02 07:39:34;;;;;;;6.40;3.50;;;18.60;69.50;;;;;;5053785;28;20422;-72
2023/08/02 07:42:00;;;;;;;5.80;3.90;;;18.70;68.30;;;;;;5071751;28;20379;-72
2023/08/02 07:44:26;;;;;;;5.95;3.80;;;18.80;67.60;;;;;;5072252;28;20387;-73
2023/08/02 07:46:51;;;;;;;6.60;3.60;;;18.90;68.20;;;;;;5071949;28;20388;-72
2023/08/02 07:49:17;;;;;;;5.97;3.50;;;19.10;65.50;;;;;;5072635;28;20384;-72
2023/08/02 07:51:42;;;;;;;5.45;3.47;;;19.30;60.40;;;;;;5071953;28;20439;-73
2023/08/02 07:54:08;;;;;;;3.87;3.00;;;19.30;59.70;;;;;;5073654;28;20545;-73
2023/08/02 07:56:34;;;;;;;5.32;3.00;;;19.50;59.00;;;;;;5054282;28;20466;-72
2023/08/02 07:58:59;;;;;;;4.07;3.00;;;19.60;57.80;;;;;;5072286;28;20384;-73
2023/08/02 08:01:25;;;;;;;5.73;3.50;;;19.80;57.10;;;;;;5072508;28;20392;-72
2023/08/02 08:03:50;;;;;;;5.70;3.10;;;20.00;54.60;;;;;;5071920;28;20384;-73
2023/08/02 08:06:20;;;;;;;5.30;3.10;;;20.00;55.20;;;;;;5053833;28;20427;-72
2023/08/02 08:08:46;;;;;;;4.00;3.40;;;20.00;53.30;;;;;;5054091;28;20392;-73
2023/08/02 08:11:13;;;;;;;4.53;3.50;;;20.00;54.60;;;;;;5071624;28;20414;-74
2023/08/02 08:13:39;;;;;;;4.40;3.20;;;20.00;53.70;;;;;;5071712;28;20418;-73
2023/08/02 08:16:05;;;;;;;4.57;3.40;;;19.90;52.90;;;;;;5071961;28;20380;-73
2023/08/02 08:18:31;;;;;;;5.43;3.95;;;19.80;53.30;;;;;;5071642;28;20379;-73
2023/08/02 08:20:57;;;;;;;4.95;3.80;;;19.50;56.10;;;;;;5073304;28;20386;-72
2023/08/02 08:23:23;;;;;;;4.70;4.00;;;19.60;57.20;;;;;;5073372;28;20387;-73
2023/08/02 08:25:48;;;;;;;8.93;4.40;;;19.70;56.50;;;;;;5073557;28;20397;-74
2023/08/02 08:28:14;;;;;;;7.32;4.00;;;19.80;55.80;;;;;;5071928;28;20402;-72
2023/08/02 08:30:40;;;;;;;5.30;3.87;;;19.90;54.20;;;;;;5054147;28;20396;-71
2023/08/02 08:33:05;;;;;;;7.17;3.40;;;20.20;53.50;;;;;;5074792;28;20788;-72
2023/08/02 08:35:34;;;;;;;4.97;3.92;;;20.50;50.30;;;;;;5072775;28;20379;-72
2023/08/02 08:37:59;;;;;;;6.85;3.80;;;20.60;49.00;;;;;;5072328;28;20395;-72
2023/08/02 08:40:25;;;;;;;4.57;3.95;;;20.70;48.20;;;;;;5075775;28;20406;-73
2023/08/02 08:42:52;;;;;;;7.07;3.90;;;20.70;48.10;;;;;;5076508;28;20824;-72
2023/08/02 08:45:20;;;;;;;4.63;3.50;;;20.60;48.40;;;;;;5076720;28;20911;-74
2023/08/02 08:47:46;;;;;;;4.95;3.83;;;20.50;50.60;;;;;;5079031;28;20478;-72
2023/08/02 08:50:12;;;;;;;15.43;4.70;;;20.30;51.90;;;;;;5078707;28;20396;-73
2023/08/02 08:52:39;;;;;;;8.05;4.63;;;20.20;53.50;;;;;;5076726;28;20406;-72
2023/08/02 08:55:08;;;;;;;5.10;4.60;;;20.10;53.80;;;;;;5075841;28;20859;-74
2023/08/02 08:57:34;;;;;;;6.93;4.32;;;20.10;56.70;;;;;;5075422;28;20445;-74
2023/08/02 09:00:01;;;;;;;6.40;3.80;;;20.10;57.10;;;;;;5057756;28;20403;-72
2023/08/02 09:02:30;;;;;;;6.03;4.30;;;20.30;55.50;;;;;;5075176;28;20744;-74
2023/08/02 09:04:57;;;;;;;6.00;3.70;;;20.70;53.20;;;;;;5075158;28;20387;-74
2023/08/02 09:07:22;;;;;;;5.90;3.90;;;20.90;52.10;;;;;;5075522;28;20384;-72
2023/08/02 09:09:48;;;;;;;5.70;4.10;;;20.90;52.80;;;;;;5075579;28;20383;-74
2023/08/02 09:12:13;;;;;;;5.80;4.30;;;21.00;52.40;;;;;;5074514;28;20416;-73
2023/08/02 09:14:50;;;;;;;7.03;3.87;;;21.10;50.80;;;;;;5075611;28;20376;-73
2023/08/02 09:17:16;;;;;;;5.85;4.50;;;21.20;49.40;;;;;;5075097;28;20379;-72
2023/08/02 09:19:41;;;;;;;6.28;3.97;;;21.20;50.60;;;;;;5057368;28;20376;-72
2023/08/02 09:22:08;;;;;;;4.03;3.40;;;21.40;50.40;;;;;;5056424;28;20926;-73
2023/08/02 09:24:36;;;;;;;4.25;3.13;;;21.50;50.90;;;;;;5075132;28;20445;-72
2023/08/02 09:27:31;;;;;;;3.80;3.00;;;21.60;49.90;;;;;;5056559;28;20441;-72
2023/08/02 09:29:56;;;;;;;3.00;2.70;;;21.80;49.50;;;;;;5035749;28;20419;-73
2023/08/02 09:32:24;;;;;;;3.20;2.90;;;22.00;48.00;;;;;;5075215;28;20456;-72
2023/08/02 09:34:53;;;;;;;4.35;3.10;;;21.90;47.50;;;;;;5074599;28;20740;-73
2023/08/02 09:37:39;;;;;;;3.95;2.58;;;21.90;47.70;;;;;;5075400;28;20387;-72
2023/08/02 09:40:09;;;;;;;10.15;3.20;;;21.90;47.30;;;;;;5078869;28;20406;-73
2023/08/02 09:42:34;;;;;;;4.50;2.23;;;21.90;47.20;;;;;;5086271;28;20379;-74
2023/08/02 09:45:03;;;;;;;4.37;2.60;;;21.80;47.20;;;;;;5065377;28;20395;-74
2023/08/02 09:47:29;;;;;;;3.70;2.30;;;21.50;49.40;;;;;;5085282;28;20415;-72
2023/08/02 09:50:21;;;;;;;3.10;2.50;;;21.30;50.80;;;;;;5083223;28;20428;-73
2023/08/02 09:52:47;;;;;;;2.53;2.10;;;21.40;50.60;;;;;;5079841;28;20433;-75
2023/08/02 09:55:12;;;;;;;2.70;2.20;;;21.30;50.60;;;;;;5084529;28;20383;-73
2023/08/02 09:57:43;;;;;;;2.83;2.10;;;21.30;50.40;;;;;;5084790;28;20510;-72
2023/08/02 10:00:09;;;;;;;3.53;2.17;;;21.30;50.20;;;;;;5084164;28;20451;-74
2023/08/02 10:02:36;;;;;;;2.40;2.10;;;21.40;49.60;;;;;;5083758;28;20474;-72
2023/08/02 10:05:03;;;;;;;3.00;2.10;;;21.50;49.70;;;;;;5083822;28;20387;-73
2023/08/02 10:07:52;;;;;;;2.53;2.30;;;21.40;51.20;;;;;;5083106;28;20693;-72
2023/08/02 10:10:22;;;;;;;3.30;2.30;;;21.50;52.40;;;;;;5065609;28;20392;-73
2023/08/02 10:12:52;;;;;;;4.70;2.00;;;21.60;52.30;;;;;;5082925;28;20411;-72
2023/08/02 10:15:18;;;;;;;4.47;2.20;;;21.70;51.20;;;;;;5081850;28;20800;-73
2023/08/02 10:17:47;;;;;;;5.60;2.28;;;21.60;51.30;;;;;;5074941;28;20399;-73
2023/08/02 10:20:13;;;;;;;2.50;1.90;;;21.30;54.90;;;;;;5078697;28;20386;-74
2023/08/02 10:22:40;;;;;;;2.28;2.08;;;21.10;55.10;;;;;;5056215;28;20395;-71
2023/08/02 10:25:07;;;;;;;2.40;2.20;;;20.90;58.20;;;;;;5073638;28;20379;-71
2023/08/02 10:27:35;;;;;;;6.72;2.30;;;20.70;59.80;;;;;;5056083;28;20383;-72
2023/08/02 10:30:03;;;;;;;3.38;2.30;;;20.70;61.00;;;;;;5073117;28;20384;-72
2023/08/02 10:32:28;;;;;;;3.63;2.30;;;20.90;62.10;;;;;;5073267;28;20404;-72
2023/08/02 10:34:54;;;;;;;4.30;2.20;;;21.30;60.80;;;;;;5073999;28;20386;-73
2023/08/02 10:37:20;;;;;;;2.40;2.20;;;21.70;57.40;;;;;;5073609;28;20459;-73
2023/08/02 10:39:46;;;;;;;3.30;2.22;;;21.80;56.00;;;;;;5074672;28;20380;-73
2023/08/02 10:42:18;;;;;;;3.10;1.70;;;21.90;56.70;;;;;;5076201;28;20394;-73
2023/08/02 10:45:03;;;;;;;2.20;1.90;;;22.10;55.60;;;;;;5076337;28;20748;-74
2023/08/02 10:47:30;;;;;;;2.50;1.83;;;22.50;52.00;;;;;;5074231;28;20433;-73
2023/08/02 10:49:57;;;;;;;4.20;1.90;;;22.80;51.50;;;;;;5055946;28;20463;-73
2023/08/02 10:52:35;;;;;;;3.47;2.00;;;22.90;47.00;;;;;;5056072;28;20984;-72
2023/08/02 10:55:11;;;;;;;3.88;1.50;;;23.00;47.20;;;;;;5056787;28;20384;-73
2023/08/02 10:57:58;;;;;;;1.65;1.55;;;23.20;45.00;;;;;;5074127;28;20380;-73
2023/08/02 11:00:29;;;;;;;2.23;1.60;;;23.10;46.10;;;;;;5056423;28;20441;-72
2023/08/02 11:02:55;;;;;;;2.90;1.50;;;23.20;46.40;;;;;;5074251;28;20403;-74
2023/08/02 11:05:41;;;;;;;3.50;1.40;;;23.50;47.20;;;;;;5073981;28;20384;-73
2023/08/02 11:08:07;;;;;;;2.30;1.80;;;23.60;45.70;;;;;;5073906;28;20419;-74
2023/08/02 11:10:45;;;;;;;1.70;1.20;;;23.30;46.20;;;;;;5073568;28;20379;-72
2023/08/02 11:13:11;;;;;;;1.50;1.10;;;23.10;45.30;;;;;;5055851;28;20388;-71
2023/08/02 11:15:36;;;;;;;1.57;1.40;;;22.90;47.00;;;;;;5076183;28;20674;-72
2023/08/02 11:18:03;;;;;;;4.10;1.20;;;23.10;46.70;;;;;;5075589;28;20402;-72
2023/08/02 11:20:32;;;;;;;2.88;1.00;;;23.50;45.40;;;;;;5077224;28;20740;-73
2023/08/02 11:22:57;;;;;;;1.30;1.05;;;23.90;42.30;;;;;;5057717;28;20396;-72
2023/08/02 11:25:23;;;;;;;1.80;1.20;;;24.10;41.60;;;;;;5076153;28;20464;-73
2023/08/02 11:28:03;;;;;;;2.10;0.90;;;24.30;40.60;;;;;;5076202;28;20384;-73
2023/08/02 11:30:28;;;;;;;1.10;0.90;;;24.40;39.60;;;;;;5076134;28;20380;-73
2023/08/02 11:32:54;;;;;;;1.27;0.88;;;24.20;39.40;;;;;;5075742;28;20586;-74
2023/08/02 11:35:20;;;;;;;3.83;1.40;;;23.80;40.70;;;;;;5075136;28;20380;-73
2023/08/02 11:37:46;;;;;;;1.88;1.20;;;23.50;45.10;;;;;;5075481;28;20742;-74
2023/08/02 11:40:12;;;;;;;2.22;1.10;;;23.00;47.70;;;;;;5056404;28;20380;-73
2023/08/02 11:42:53;;;;;;;1.70;1.00;;;22.70;49.70;;;;;;5074780;28;20395;-73
2023/08/02 11:45:29;;;;;;;4.20;1.10;;;22.50;50.70;;;;;;5074241;28;20384;-74
2023/08/02 11:47:55;;;;;;;1.60;1.10;;;22.50;52.30;;;;;;5056144;28;20399;-73
2023/08/02 11:50:27;;;;;;;1.10;1.00;;;23.00;50.80;;;;;;5055568;28;20399;-73
2023/08/02 11:53:01;;;;;;;1.40;1.00;;;23.70;47.80;;;;;;5074375;28;20899;-74
2023/08/02 11:55:27;;;;;;;3.00;1.00;;;24.40;45.30;;;;;;5073503;28;20943;-73
2023/08/02 11:57:53;;;;;;;3.10;1.00;;;25.20;41.70;;;;;;5073126;28;20415;-73
2023/08/02 12:00:19;;;;;;;1.80;1.00;;;25.60;40.10;;;;;;5073721;28;20388;-73
2023/08/02 12:02:46;;;;;;;1.70;0.90;;;25.70;38.60;;;;;;5072975;28;20433;-72
2023/08/02 12:05:21;;;;;;;3.10;0.90;;;25.80;38.40;;;;;;5074128;28;20383;-73
2023/08/02 12:07:48;;;;;;;2.28;0.90;;;25.70;38.00;;;;;;5074476;28;20419;-73
2023/08/02 12:10:28;;;;;;;1.30;0.90;;;25.60;37.40;;;;;;5055183;28;21052;-73
2023/08/02 12:12:54;;;;;;;3.10;0.90;;;25.00;38.20;;;;;;5074551;28;20403;-73
2023/08/02 12:15:20;;;;;;;1.63;1.00;;;24.60;40.60;;;;;;5072962;28;20501;-73
2023/08/02 12:17:46;;;;;;;1.40;1.00;;;24.20;42.20;;;;;;5073195;28;20566;-73
2023/08/02 12:20:34;;;;;;;1.70;1.03;;;23.80;44.50;;;;;;5073970;28;20387;-73
2023/08/02 12:23:00;;;;;;;1.60;0.90;;;23.60;46.00;;;;;;5073232;28;20376;-73
2023/08/02 12:25:26;;;;;;;2.10;1.00;;;23.40;47.10;;;;;;5073420;28;20903;-73
2023/08/02 12:28:06;;;;;;;6.68;1.40;;;23.50;46.80;;;;;;5055089;28;20396;-73
2023/08/02 12:30:32;;;;;;;3.13;1.20;;;23.70;48.20;;;;;;5073023;28;20390;-73
2023/08/02 12:32:58;;;;;;;2.30;1.23;;;24.00;48.20;;;;;;5072304;28;20876;-73
2023/08/02 12:35:24;;;;;;;3.10;1.20;;;24.20;46.10;;;;;;5055587;28;20926;-74
2023/08/02 12:37:53;;;;;;;3.55;1.27;;;24.10;46.70;;;;;;5073211;28;20388;-72
2023/08/02 12:40:19;;;;;;;4.95;1.40;;;23.70;49.10;;;;;;5055015;28;20475;-71
2023/08/02 12:42:44;;;;;;;5.57;2.10;;;23.50;51.70;;;;;;5073897;28;20415;-73
2023/08/02 12:45:10;;;;;;;6.05;1.77;;;23.30;53.50;;;;;;5073834;28;20417;-73